Time;durP1;ratioP1;P1;durP2;ratioP2;P2;SDS_P1;SDS_P2;PMS_P1;PMS_P2;Temp;Humidity;BMP_temperature;BMP_pressure;BME280_temperature;BME280_humidity;BME280_pressure;Samples;Min_cycle;Max_cycle;Signal;HPM_P1;HPM_P2
2021/03/25 00:01:58;;;;;;;72.03;47.87;;;8.30;99.90;;;;;;5031336;28;20434;-49
2021/03/25 00:04:26;;;;;;;77.87;48.73;;;8.50;99.90;;;;;;5030988;28;20430;-50
2021/03/25 00:06:56;;;;;;;76.93;48.93;;;8.60;99.90;;;;;;5031300;28;20942;-49
2021/03/25 00:09:25;;;;;;;78.83;50.83;;;8.50;99.90;;;;;;5031161;28;20470;-50
2021/03/25 00:11:52;;;;;;;75.10;48.33;;;8.50;99.90;;;;;;5031198;28;20442;-49
2021/03/25 00:14:19;;;;;;;85.30;51.50;;;8.50;99.90;;;;;;5030540;28;20441;-48
2021/03/25 00:16:45;;;;;;;82.57;49.97;;;8.30;99.90;;;;;;5031282;28;20435;-50
2021/03/25 00:19:12;;;;;;;82.73;48.20;;;8.20;99.90;;;;;;5031298;28;20978;-49
2021/03/25 00:21:40;;;;;;;82.97;49.83;;;8.30;99.90;;;;;;5031218;28;20447;-50
2021/03/25 00:24:09;;;;;;;82.40;51.37;;;8.50;99.90;;;;;;5033258;28;21018;-50
2021/03/25 00:26:36;;;;;;;75.53;46.47;;;8.20;99.90;;;;;;5035002;28;20466;-50
2021/03/25 00:29:03;;;;;;;73.73;46.13;;;8.40;99.90;;;;;;5017153;28;20448;-50
2021/03/25 00:31:29;;;;;;;68.27;46.20;;;8.60;99.90;;;;;;5035170;28;20432;-49
2021/03/25 00:33:56;;;;;;;71.97;45.80;;;8.50;99.90;;;;;;5034617;28;20431;-49
2021/03/25 00:36:22;;;;;;;66.53;45.67;;;8.60;99.90;;;;;;5017074;28;20439;-50
2021/03/25 00:38:48;;;;;;;84.40;48.37;;;8.00;99.90;;;;;;5034798;28;20531;-50
2021/03/25 00:41:15;;;;;;;77.30;49.23;;;8.30;99.90;;;;;;5034761;28;20518;-49
2021/03/25 00:43:42;;;;;;;78.17;49.67;;;8.40;99.90;;;;;;5034537;28;20489;-49
2021/03/25 00:46:08;;;;;;;69.17;45.73;;;8.50;99.90;;;;;;5016906;28;20936;-49
2021/03/25 00:48:34;;;;;;;71.77;47.70;;;8.00;99.90;;;;;;5034450;28;20453;-50
2021/03/25 00:51:02;;;;;;;79.43;50.43;;;8.50;99.90;;;;;;5034816;28;20966;-50
2021/03/25 00:53:32;;;;;;;68.57;47.57;;;8.30;99.90;;;;;;5034458;28;20434;-50
2021/03/25 00:55:59;;;;;;;64.10;45.50;;;8.10;99.90;;;;;;5017026;28;20474;-50
2021/03/25 00:58:26;;;;;;;69.13;47.37;;;8.60;99.90;;;;;;5016539;28;20557;-50
2021/03/25 01:00:55;;;;;;;76.23;49.70;;;8.10;99.90;;;;;;5016686;28;20461;-51
2021/03/25 01:03:24;;;;;;;70.47;44.77;;;8.30;99.90;;;;;;5034003;28;21006;-50
2021/03/25 01:05:51;;;;;;;66.00;48.87;;;8.00;99.90;;;;;;5034505;28;20479;-48
2021/03/25 01:08:18;;;;;;;70.07;46.07;;;8.30;99.90;;;;;;5034782;28;20445;-51
2021/03/25 01:10:48;;;;;;;64.30;47.90;;;8.40;99.90;;;;;;5016549;28;20443;-51
2021/03/25 01:13:19;;;;;;;75.20;48.43;;;8.30;99.90;;;;;;5016087;28;20477;-51
2021/03/25 01:15:46;;;;;;;78.00;47.50;;;8.20;99.90;;;;;;5016355;28;20532;-51
2021/03/25 01:18:13;;;;;;;78.77;49.37;;;8.40;99.90;;;;;;5034012;28;20442;-51
2021/03/25 01:20:43;;;;;;;73.60;49.43;;;7.70;99.90;;;;;;5033869;28;21018;-49
2021/03/25 01:23:10;;;;;;;78.70;53.10;;;8.10;99.90;;;;;;5015849;28;20477;-50
2021/03/25 01:25:37;;;;;;;79.73;53.47;;;8.40;99.90;;;;;;5016086;28;20494;-50
2021/03/25 01:28:07;;;;;;;77.87;51.47;;;8.10;99.90;;;;;;5033786;28;20439;-51
2021/03/25 01:30:36;;;;;;;75.53;50.13;;;8.10;99.90;;;;;;5016094;28;20512;-50
2021/03/25 01:33:06;;;;;;;83.00;49.43;;;8.20;99.90;;;;;;5015646;28;20449;-50
2021/03/25 01:35:34;;;;;;;74.47;48.90;;;8.00;99.90;;;;;;5015971;28;20548;-50
2021/03/25 01:38:01;;;;;;;78.43;51.47;;;8.20;99.90;;;;;;5033682;28;20439;-48
2021/03/25 01:40:32;;;;;;;76.33;49.57;;;8.00;99.90;;;;;;5015950;28;20461;-48
2021/03/25 01:43:13;;;;;;;87.43;53.57;;;8.20;99.90;;;;;;5015730;28;20529;-48
2021/03/25 01:46:00;;;;;;;83.33;52.30;;;8.20;99.90;;;;;;5016163;28;20483;-48
2021/03/25 01:48:31;;;;;;;82.40;51.37;;;7.80;99.90;;;;;;5015882;28;20846;-48
2021/03/25 01:51:01;;;;;;;85.90;50.43;;;8.00;99.90;;;;;;5015748;28;20487;-48
2021/03/25 01:53:57;;;;;;;92.77;51.63;;;8.00;99.90;;;;;;5015357;28;20450;-49
2021/03/25 01:56:35;;;;;;;89.90;54.33;;;8.00;99.90;;;;;;5003389;28;20446;-48
2021/03/25 01:59:43;;;;;;;72.07;49.47;;;8.20;99.90;;;;;;5015450;28;20465;-48
2021/03/25 02:02:16;;;;;;;79.73;49.37;;;7.80;99.90;;;;;;4996572;28;20459;-49
2021/03/25 02:04:57;;;;;;;81.97;49.90;;;8.10;99.90;;;;;;5015316;28;20868;-49
2021/03/25 02:07:36;;;;;;;74.67;49.63;;;7.90;99.90;;;;;;5015392;28;20826;-49
2021/03/25 02:10:12;;;;;;;77.20;50.33;;;8.10;99.90;;;;;;5015377;28;20474;-49
2021/03/25 02:13:00;;;;;;;78.23;50.70;;;7.80;99.90;;;;;;5015013;28;20523;-49
2021/03/25 02:15:35;;;;;;;75.93;48.63;;;8.00;99.90;;;;;;5015317;28;20973;-49
2021/03/25 02:18:09;;;;;;;71.53;49.13;;;8.00;99.90;;;;;;5015202;28;20513;-48
2021/03/25 02:21:14;;;;;;;82.70;49.30;;;7.70;99.90;;;;;;5015420;28;20826;-49
2021/03/25 02:24:06;;;;;;;74.70;48.57;;;7.80;99.90;;;;;;5032790;28;20609;-49
2021/03/25 02:26:38;;;;;;;78.10;48.73;;;7.10;99.90;;;;;;5015152;28;20460;-49
2021/03/25 02:29:26;;;;;;;81.20;47.30;;;7.50;99.90;;;;;;5015041;28;20474;-49
2021/03/25 02:31:58;;;;;;;79.63;46.63;;;7.90;99.90;;;;;;5002428;28;20464;-48
2021/03/25 02:34:31;;;;;;;72.47;46.63;;;7.00;99.90;;;;;;5032428;28;20434;-49
2021/03/25 02:37:03;;;;;;;79.50;49.70;;;7.30;99.90;;;;;;5015244;28;20453;-49
2021/03/25 02:39:36;;;;;;;73.10;46.70;;;7.60;99.90;;;;;;5014754;28;20477;-48
2021/03/25 02:42:06;;;;;;;78.70;48.70;;;7.60;99.90;;;;;;5014581;28;20470;-49
2021/03/25 02:44:38;;;;;;;76.17;48.37;;;7.40;99.90;;;;;;5014583;28;20969;-49
2021/03/25 02:47:08;;;;;;;75.20;47.13;;;7.50;99.90;;;;;;5014140;28;20445;-49
2021/03/25 02:49:42;;;;;;;82.00;45.97;;;7.60;99.90;;;;;;5032435;28;20509;-49
2021/03/25 02:52:16;;;;;;;70.33;47.90;;;7.00;99.90;;;;;;5014888;28;20800;-46
2021/03/25 02:54:50;;;;;;;79.60;46.70;;;7.70;99.90;;;;;;5014467;28;20548;-46
2021/03/25 02:57:20;;;;;;;70.73;47.97;;;7.60;99.90;;;;;;5014615;28;20478;-48
2021/03/25 02:59:49;;;;;;;76.13;47.33;;;7.30;99.90;;;;;;5014745;28;20495;-47
2021/03/25 03:02:24;;;;;;;71.60;46.00;;;7.50;99.90;;;;;;5031643;28;20590;-48
2021/03/25 03:04:53;;;;;;;74.27;47.07;;;7.40;99.90;;;;;;5031378;28;20424;-49
2021/03/25 03:07:23;;;;;;;69.50;43.70;;;7.00;99.90;;;;;;5015148;28;21110;-46
2021/03/25 03:10:20;;;;;;;66.13;44.03;;;7.40;99.90;;;;;;5015721;28;20480;-48
2021/03/25 03:12:49;;;;;;;72.47;45.43;;;7.40;99.90;;;;;;5014744;28;20942;-48
2021/03/25 03:15:22;;;;;;;78.03;45.60;;;7.60;99.90;;;;;;5014610;28;20454;-48
2021/03/25 03:17:59;;;;;;;72.70;47.30;;;7.50;99.90;;;;;;5014941;28;20455;-48
2021/03/25 03:20:47;;;;;;;75.03;48.17;;;7.40;99.90;;;;;;5014616;28;20487;-48
2021/03/25 03:23:38;;;;;;;68.37;44.17;;;7.50;99.90;;;;;;5025865;28;20520;-48
2021/03/25 03:26:09;;;;;;;70.17;45.13;;;7.70;99.90;;;;;;5014075;28;20451;-48
2021/03/25 03:28:39;;;;;;;71.00;47.30;;;7.40;99.90;;;;;;5031732;28;21047;-48
2021/03/25 03:31:23;;;;;;;75.37;47.70;;;7.30;99.90;;;;;;5014124;28;20463;-49
2021/03/25 03:33:53;;;;;;;72.83;45.80;;;7.40;99.90;;;;;;5013927;28;20460;-49
2021/03/25 03:36:24;;;;;;;80.80;44.90;;;7.30;99.90;;;;;;5014191;28;20983;-49
2021/03/25 03:38:54;;;;;;;70.17;44.50;;;7.60;99.90;;;;;;5013987;28;20450;-49
2021/03/25 03:41:25;;;;;;;81.63;45.07;;;7.60;99.90;;;;;;5013925;28;20454;-49
2021/03/25 03:43:54;;;;;;;80.57;46.07;;;7.20;99.90;;;;;;5013474;28;20515;-49
2021/03/25 03:46:23;;;;;;;76.20;45.57;;;7.10;99.90;;;;;;5014276;28;20439;-49
2021/03/25 03:48:56;;;;;;;73.97;45.70;;;7.40;99.90;;;;;;5013756;28;20476;-48
2021/03/25 03:51:27;;;;;;;75.33;46.10;;;7.20;99.90;;;;;;5014098;28;20476;-48
2021/03/25 03:53:56;;;;;;;77.00;46.37;;;7.40;99.90;;;;;;5013758;28;20977;-49
2021/03/25 03:56:31;;;;;;;77.70;48.50;;;7.50;99.90;;;;;;5013855;28;20448;-48
2021/03/25 03:59:06;;;;;;;78.23;46.10;;;7.50;99.90;;;;;;5017983;28;20480;-48
2021/03/25 04:01:40;;;;;;;74.63;45.90;;;7.20;99.90;;;;;;5036027;28;20867;-48
2021/03/25 04:04:17;;;;;;;79.83;47.17;;;7.00;99.90;;;;;;5017602;28;20474;-48
2021/03/25 04:07:06;;;;;;;72.60;44.30;;;7.30;99.90;;;;;;5014390;28;20583;-48
2021/03/25 04:10:08;;;;;;;66.83;45.33;;;7.50;99.90;;;;;;5035159;28;20450;-48
2021/03/25 04:12:42;;;;;;;71.60;44.10;;;7.00;99.90;;;;;;5017298;28;20420;-48
2021/03/25 04:15:16;;;;;;;81.33;45.13;;;7.30;99.90;;;;;;5035394;28;20494;-48
2021/03/25 04:17:51;;;;;;;84.27;48.90;;;7.40;99.90;;;;;;5017593;28;20447;-48
2021/03/25 04:20:41;;;;;;;78.17;44.40;;;6.90;99.90;;;;;;5035060;28;20475;-47
2021/03/25 04:23:14;;;;;;;88.13;48.23;;;7.40;99.90;;;;;;5034832;28;20476;-48
2021/03/25 04:25:44;;;;;;;68.63;44.37;;;7.30;99.90;;;;;;5034899;28;20433;-48
2021/03/25 04:28:14;;;;;;;70.93;42.03;;;7.40;99.90;;;;;;5035157;28;20899;-48
2021/03/25 04:30:44;;;;;;;81.63;44.20;;;7.30;99.90;;;;;;5035297;28;20476;-48
2021/03/25 04:33:12;;;;;;;75.10;44.47;;;7.30;99.90;;;;;;5035106;28;20429;-48
2021/03/25 04:35:42;;;;;;;69.23;43.90;;;7.00;99.90;;;;;;5035162;28;20432;-47
2021/03/25 04:38:11;;;;;;;68.37;43.23;;;7.00;99.90;;;;;;5034812;28;20831;-49
2021/03/25 04:40:38;;;;;;;70.83;41.10;;;6.90;99.90;;;;;;5034898;28;20439;-49
2021/03/25 04:43:04;;;;;;;76.93;45.27;;;6.80;99.90;;;;;;5034228;28;20471;-49
2021/03/25 04:45:43;;;;;;;74.97;45.67;;;6.70;99.90;;;;;;5034657;28;20468;-49
2021/03/25 04:48:14;;;;;;;71.07;42.53;;;7.10;99.90;;;;;;5034615;28;20440;-49
2021/03/25 04:50:45;;;;;;;75.80;46.23;;;7.10;99.90;;;;;;5034477;28;20852;-49
2021/03/25 04:53:22;;;;;;;69.80;44.30;;;7.10;99.90;;;;;;5033766;28;20436;-48
2021/03/25 04:55:49;;;;;;;84.10;46.60;;;6.90;99.90;;;;;;5034627;28;20485;-48
2021/03/25 04:58:25;;;;;;;88.93;48.42;;;6.90;99.90;;;;;;5034225;28;20435;-49
2021/03/25 05:00:51;;;;;;;74.37;44.53;;;6.80;99.90;;;;;;5034366;28;20189;-49
2021/03/25 05:03:21;;;;;;;80.13;47.23;;;6.60;99.90;;;;;;5033811;28;20967;-49
2021/03/25 05:05:52;;;;;;;75.40;45.07;;;6.90;99.90;;;;;;5034078;28;20424;-49
2021/03/25 05:08:21;;;;;;;76.10;45.93;;;6.90;99.90;;;;;;5033640;28;20495;-49
2021/03/25 05:10:54;;;;;;;77.30;44.37;;;6.90;99.90;;;;;;5033998;28;20428;-48
2021/03/25 05:13:23;;;;;;;74.50;44.93;;;6.90;99.90;;;;;;5034014;28;20941;-49
2021/03/25 05:15:59;;;;;;;75.83;44.57;;;6.70;99.90;;;;;;5016316;28;20451;-48
2021/03/25 05:18:31;;;;;;;77.13;46.10;;;6.80;99.90;;;;;;5033814;28;20470;-49
2021/03/25 05:21:04;;;;;;;75.87;46.20;;;6.70;99.90;;;;;;5033958;28;20423;-49
2021/03/25 05:23:37;;;;;;;77.87;47.17;;;7.10;99.90;;;;;;5015678;28;20470;-49
2021/03/25 05:26:07;;;;;;;80.80;44.50;;;7.10;99.90;;;;;;5033516;28;20441;-49
2021/03/25 05:28:40;;;;;;;77.63;47.60;;;6.90;99.90;;;;;;5033579;28;20444;-49
2021/03/25 05:31:10;;;;;;;78.13;48.63;;;6.90;99.90;;;;;;5033854;28;20451;-49
2021/03/25 05:33:38;;;;;;;79.43;49.33;;;7.10;99.90;;;;;;5033454;28;20782;-50
2021/03/25 05:36:08;;;;;;;88.03;47.40;;;6.90;99.90;;;;;;5033761;28;20429;-49
2021/03/25 05:38:35;;;;;;;78.68;48.80;;;6.90;99.90;;;;;;5033066;28;20452;-50
2021/03/25 05:41:11;;;;;;;90.55;50.42;;;6.90;99.90;;;;;;5033012;28;20223;-49
2021/03/25 05:44:21;;;;;;;77.65;49.15;;;6.70;99.90;;;;;;5032740;28;20216;-49
2021/03/25 05:46:54;;;;;;;77.87;45.67;;;7.10;99.90;;;;;;5033246;28;20284;-50
2021/03/25 05:49:30;;;;;;;85.35;48.47;;;6.80;99.90;;;;;;5033245;28;20447;-50
2021/03/25 05:52:24;;;;;;;99.10;49.60;;;7.10;99.90;;;;;;5033794;28;20302;-50
2021/03/25 05:55:01;;;;;;;80.25;46.58;;;7.10;99.90;;;;;;5033209;28;20188;-50
2021/03/25 05:57:37;;;;;;;85.28;48.90;;;6.90;99.90;;;;;;5033001;28;20216;-49
2021/03/25 06:00:17;;;;;;;77.07;46.37;;;7.40;99.90;;;;;;5032602;28;20208;-49
2021/03/25 06:02:48;;;;;;;91.10;47.97;;;7.10;99.90;;;;;;5032564;28;20912;-49
2021/03/25 06:05:15;;;;;;;76.45;46.08;;;6.90;99.90;;;;;;5032902;28;20489;-48
2021/03/25 06:07:56;;;;;;;84.50;48.90;;;7.00;99.90;;;;;;5033011;28;20594;-49
2021/03/25 06:10:35;;;;;;;78.17;44.90;;;7.30;99.90;;;;;;5032692;28;20478;-49
2021/03/25 06:13:14;;;;;;;77.07;45.37;;;7.30;99.90;;;;;;5034508;28;20443;-49
2021/03/25 06:16:03;;;;;;;75.50;46.33;;;7.30;99.90;;;;;;5032422;28;20782;-49
2021/03/25 06:18:58;;;;;;;72.50;44.87;;;7.70;99.90;;;;;;5032276;28;20435;-50
2021/03/25 06:21:36;;;;;;;77.57;47.33;;;7.50;99.90;;;;;;5031560;28;20775;-49
2021/03/25 06:24:52;;;;;;;74.18;44.72;;;7.80;99.90;;;;;;5014101;28;20994;-49
2021/03/25 06:27:25;;;;;;;63.67;42.43;;;8.00;99.90;;;;;;5032025;28;20671;-49
2021/03/25 06:29:54;;;;;;;82.93;47.70;;;7.70;99.90;;;;;;5031985;28;20603;-49
2021/03/25 06:32:26;;;;;;;76.20;45.50;;;7.70;99.90;;;;;;5032994;28;20408;-49
2021/03/25 06:34:58;;;;;;;83.47;46.00;;;8.00;99.90;;;;;;5034965;28;20412;-49
2021/03/25 06:37:33;;;;;;;82.43;47.50;;;8.30;99.90;;;;;;5034478;28;20437;-49
2021/03/25 06:40:04;;;;;;;71.07;43.73;;;7.60;99.90;;;;;;5032653;28;20884;-49
2021/03/25 06:42:36;;;;;;;72.23;44.80;;;8.10;99.90;;;;;;5031946;28;20441;-49
2021/03/25 06:45:09;;;;;;;74.60;45.40;;;8.30;99.90;;;;;;5032167;28;20419;-49
2021/03/25 06:47:46;;;;;;;82.07;45.37;;;8.30;99.90;;;;;;5032174;28;20445;-49
2021/03/25 06:50:17;;;;;;;76.80;44.40;;;8.60;99.90;;;;;;5031335;28;20457;-50
2021/03/25 06:52:48;;;;;;;70.97;44.40;;;8.50;99.90;;;;;;5031248;28;20790;-48
2021/03/25 06:55:19;;;;;;;78.57;44.13;;;8.40;99.90;;;;;;5031168;28;20523;-49
2021/03/25 06:57:52;;;;;;;78.90;46.83;;;8.60;99.90;;;;;;5031704;28;20972;-49
2021/03/25 07:00:21;;;;;;;73.37;44.37;;;8.70;99.90;;;;;;5031982;28;20978;-50
2021/03/25 07:02:48;;;;;;;70.83;46.70;;;8.70;99.90;;;;;;5031208;28;20430;-49
2021/03/25 07:05:20;;;;;;;82.57;44.77;;;8.50;99.90;;;;;;5031534;28;20731;-49
2021/03/25 07:07:53;;;;;;;73.73;44.63;;;8.70;99.90;;;;;;5031344;28;20808;-49
2021/03/25 07:10:21;;;;;;;77.13;43.70;;;9.10;99.90;;;;;;5031525;28;20474;-50
2021/03/25 07:12:49;;;;;;;72.50;43.23;;;8.90;99.90;;;;;;5031150;28;20435;-50
2021/03/25 07:15:22;;;;;;;77.03;46.67;;;8.70;99.90;;;;;;5031785;28;20453;-50
2021/03/25 07:17:49;;;;;;;63.90;42.07;;;8.90;99.90;;;;;;5031606;28;20463;-50
2021/03/25 07:20:21;;;;;;;74.03;42.87;;;9.40;99.90;;;;;;5031086;28;20451;-50
2021/03/25 07:23:04;;;;;;;69.23;45.17;;;9.10;99.90;;;;;;5031249;28;20841;-50
2021/03/25 07:25:33;;;;;;;75.30;44.33;;;9.40;99.90;;;;;;5030966;28;20435;-50
2021/03/25 07:28:01;;;;;;;82.57;43.77;;;9.50;99.90;;;;;;5031174;28;20447;-50
2021/03/25 07:30:43;;;;;;;66.70;43.30;;;8.70;99.90;;;;;;5030998;28;20443;-50
2021/03/25 07:33:13;;;;;;;59.37;40.40;;;9.30;99.90;;;;;;5030692;28;20431;-49
2021/03/25 07:35:41;;;;;;;61.63;40.60;;;9.50;99.90;;;;;;5030976;28;20411;-50
2021/03/25 07:38:21;;;;;;;73.50;43.87;;;9.70;99.90;;;;;;5030385;28;20507;-50
2021/03/25 07:41:04;;;;;;;75.43;43.17;;;9.40;99.90;;;;;;5030475;28;20538;-50
2021/03/25 07:43:48;;;;;;;68.43;42.50;;;9.70;99.90;;;;;;5030098;28;20467;-50
2021/03/25 07:46:24;;;;;;;74.73;43.87;;;9.60;99.90;;;;;;5030571;28;20513;-51
2021/03/25 07:49:06;;;;;;;76.10;45.13;;;9.80;99.90;;;;;;5030891;28;20465;-50
2021/03/25 07:51:51;;;;;;;63.20;41.13;;;10.00;99.90;;;;;;5031012;28;20486;-51
2021/03/25 07:54:24;;;;;;;75.00;42.40;;;9.90;99.90;;;;;;5030553;28;20477;-50
2021/03/25 07:57:10;;;;;;;67.50;41.47;;;9.60;99.90;;;;;;5030787;28;20439;-50
2021/03/25 07:59:46;;;;;;;64.77;39.97;;;10.00;99.90;;;;;;5030464;28;20517;-50
2021/03/25 08:02:29;;;;;;;77.50;44.50;;;9.40;99.90;;;;;;5031104;28;20452;-49
2021/03/25 08:04:56;;;;;;;80.20;42.20;;;10.10;99.90;;;;;;5030777;28;20470;-49
2021/03/25 08:07:25;;;;;;;80.03;44.40;;;10.20;99.90;;;;;;5030675;28;20443;-49
2021/03/25 08:09:54;;;;;;;70.13;41.13;;;10.10;99.90;;;;;;5030682;28;20650;-49
2021/03/25 08:12:31;;;;;;;78.03;41.23;;;10.10;99.90;;;;;;5030359;28;20881;-50
2021/03/25 08:15:22;;;;;;;72.67;43.30;;;10.60;99.90;;;;;;5030732;28;20447;-49
2021/03/25 08:17:58;;;;;;;71.73;45.20;;;9.90;99.90;;;;;;5027913;28;20447;-49
2021/03/25 08:20:32;;;;;;;68.13;43.17;;;10.10;99.90;;;;;;5030869;28;20442;-49
2021/03/25 08:23:35;;;;;;;68.90;43.67;;;10.40;99.90;;;;;;5030202;28;20397;-49
2021/03/25 08:26:09;;;;;;;73.37;44.03;;;10.30;99.90;;;;;;5030617;28;20737;-50
2021/03/25 08:28:57;;;;;;;69.23;41.07;;;10.30;99.90;;;;;;5031111;28;20866;-50
2021/03/25 08:31:50;;;;;;;67.87;42.93;;;10.30;99.90;;;;;;5030515;28;20550;-50
2021/03/25 08:34:43;;;;;;;74.37;43.17;;;10.30;99.90;;;;;;5029798;28;20851;-49
2021/03/25 08:37:39;;;;;;;72.13;44.83;;;10.40;99.90;;;;;;5030207;28;20588;-49
2021/03/25 08:40:16;;;;;;;71.10;44.10;;;10.50;99.90;;;;;;5026965;28;20479;-50
2021/03/25 08:42:48;;;;;;;63.60;41.70;;;10.40;99.90;;;;;;5029512;28;20798;-50
2021/03/25 08:45:25;;;;;;;69.93;44.23;;;10.70;99.90;;;;;;5032580;28;20517;-50
2021/03/25 08:48:09;;;;;;;71.13;43.50;;;10.70;99.90;;;;;;5033465;28;20509;-50
2021/03/25 08:50:43;;;;;;;66.47;41.63;;;10.90;99.90;;;;;;5034141;28;20435;-51
2021/03/25 08:53:23;;;;;;;65.17;43.20;;;10.90;99.90;;;;;;5033543;28;20495;-51
2021/03/25 08:55:53;;;;;;;69.50;44.83;;;11.10;99.90;;;;;;5033667;28;20522;-51
2021/03/25 08:58:22;;;;;;;70.57;43.47;;;11.00;99.90;;;;;;5033947;28;20550;-49
2021/03/25 09:00:54;;;;;;;73.00;44.43;;;11.00;99.90;;;;;;5033519;28;20424;-49
2021/03/25 09:03:26;;;;;;;75.50;43.30;;;11.30;99.90;;;;;;5033596;28;20555;-49
2021/03/25 09:06:04;;;;;;;66.70;42.57;;;11.00;99.90;;;;;;5035376;28;20446;-48
2021/03/25 09:08:34;;;;;;;70.00;42.60;;;11.40;99.90;;;;;;5061333;22;20470;-45
2021/03/25 09:11:02;;;;;;;68.10;44.40;;;11.50;99.90;;;;;;5053847;28;20459;-45
2021/03/25 09:13:32;;;;;;;71.73;43.77;;;11.80;99.90;;;;;;5053768;28;20438;-44
2021/03/25 09:16:09;;;;;;;65.50;43.53;;;11.40;99.90;;;;;;5053939;28;20797;-46
2021/03/25 09:18:42;;;;;;;69.60;44.00;;;11.40;99.90;;;;;;5054072;28;20469;-46
2021/03/25 09:21:13;;;;;;;73.80;44.63;;;11.70;99.90;;;;;;5053778;28;20428;-47
2021/03/25 09:24:01;;;;;;;68.27;42.33;;;12.10;99.90;;;;;;5053497;28;20495;-46
2021/03/25 09:26:52;;;;;;;61.83;41.37;;;11.80;99.90;;;;;;5055352;28;20491;-46
2021/03/25 09:29:29;;;;;;;62.10;42.20;;;11.80;99.90;;;;;;5036530;28;20471;-45
2021/03/25 09:32:39;;;;;;;71.57;46.40;;;12.10;99.90;;;;;;5054224;28;20433;-46
2021/03/25 09:35:43;;;;;;;67.00;44.07;;;11.70;99.90;;;;;;5015681;28;20787;-45
2021/03/25 09:38:26;;;;;;;69.10;42.73;;;12.00;99.90;;;;;;5053031;28;20462;-46
2021/03/25 09:40:54;;;;;;;70.80;44.40;;;11.60;99.90;;;;;;5053380;28;20832;-46
2021/03/25 09:43:39;;;;;;;73.37;46.60;;;12.20;99.90;;;;;;5052372;28;20471;-46
2021/03/25 09:46:31;;;;;;;63.87;44.87;;;12.10;99.90;;;;;;5052681;28;20453;-46
2021/03/25 09:49:31;;;;;;;67.23;44.13;;;12.20;99.90;;;;;;5052597;28;20459;-46
2021/03/25 09:52:20;;;;;;;66.43;44.40;;;12.30;99.80;;;;;;5052694;28;20435;-46
2021/03/25 09:54:59;;;;;;;62.93;44.30;;;12.20;99.60;;;;;;5053008;28;20424;-45
2021/03/25 09:57:34;;;;;;;72.30;44.20;;;12.20;99.40;;;;;;5052816;28;20428;-45
2021/03/25 10:00:07;;;;;;;64.50;44.63;;;12.60;99.60;;;;;;5052984;28;20499;-45
2021/03/25 10:02:54;;;;;;;62.40;43.73;;;12.00;99.20;;;;;;5052873;28;20440;-43
2021/03/25 10:05:37;;;;;;;60.53;41.93;;;12.60;99.00;;;;;;5053006;28;21043;-45
2021/03/25 10:08:25;;;;;;;60.00;43.20;;;12.40;98.80;;;;;;5052702;28;20444;-46
2021/03/25 10:10:53;;;;;;;72.17;45.90;;;13.20;99.30;;;;;;5052068;28;20440;-45
2021/03/25 10:13:34;;;;;;;71.90;44.27;;;12.90;98.80;;;;;;5052466;28;20909;-47
2021/03/25 10:16:01;;;;;;;67.87;43.90;;;13.00;98.50;;;;;;5051756;28;20843;-45
2021/03/25 10:18:59;;;;;;;63.20;41.40;;;12.60;98.30;;;;;;5034148;28;20447;-45
2021/03/25 10:22:01;;;;;;;60.23;43.60;;;12.70;98.40;;;;;;5052878;28;21108;-45
2021/03/25 10:24:37;;;;;;;69.17;42.93;;;12.30;97.90;;;;;;4974165;28;20981;-45
2021/03/25 10:27:22;;;;;;;66.50;40.80;;;13.00;98.10;;;;;;4989851;28;20452;-44
2021/03/25 10:29:50;;;;;;;80.37;42.50;;;12.90;97.40;;;;;;5030344;28;20498;-45
2021/03/25 10:32:27;;;;;;;66.53;44.30;;;13.50;97.50;;;;;;5052023;28;20487;-46
2021/03/25 10:34:57;;;;;;;71.33;43.27;;;13.40;97.50;;;;;;5052331;28;20433;-45
2021/03/25 10:37:35;;;;;;;68.93;40.90;;;13.40;97.30;;;;;;5052649;28;20447;-46
2021/03/25 10:40:07;;;;;;;59.20;39.83;;;13.10;96.90;;;;;;5051925;28;20515;-45
2021/03/25 10:42:36;;;;;;;61.43;39.23;;;13.20;96.70;;;;;;5052055;28;20531;-46
2021/03/25 10:45:19;;;;;;;61.03;40.20;;;13.00;96.50;;;;;;5052047;28;20586;-46
2021/03/25 10:47:53;;;;;;;71.30;42.10;;;13.10;96.40;;;;;;5051316;28;20543;-45
2021/03/25 10:50:24;;;;;;;60.90;41.43;;;13.30;96.60;;;;;;5052163;28;20454;-46
2021/03/25 10:52:52;;;;;;;70.80;46.17;;;13.70;96.80;;;;;;5051376;28;20924;-45
2021/03/25 10:55:25;;;;;;;63.83;43.43;;;13.60;96.40;;;;;;5051738;28;20433;-44
2021/03/25 10:57:54;;;;;;;68.07;42.53;;;13.40;96.10;;;;;;5051981;28;20437;-45
2021/03/25 11:00:28;;;;;;;65.27;40.37;;;13.70;96.10;;;;;;5051427;28;20461;-44
2021/03/25 11:02:58;;;;;;;62.17;43.10;;;13.70;95.70;;;;;;5051518;28;20444;-46
2021/03/25 11:05:26;;;;;;;68.80;45.30;;;13.50;95.70;;;;;;5051939;28;20535;-44
2021/03/25 11:07:56;;;;;;;63.63;41.20;;;13.70;95.50;;;;;;5051115;28;20438;-46
2021/03/25 11:10:26;;;;;;;67.10;42.90;;;13.50;95.70;;;;;;5052235;28;20887;-45
2021/03/25 11:12:59;;;;;;;61.93;40.20;;;13.40;95.70;;;;;;5052819;28;21000;-46
2021/03/25 11:15:34;;;;;;;64.43;42.97;;;13.60;95.10;;;;;;5053894;28;20447;-46
2021/03/25 11:18:12;;;;;;;61.30;39.87;;;14.20;95.50;;;;;;5054135;28;20498;-45
2021/03/25 11:20:39;;;;;;;57.77;38.93;;;13.00;94.90;;;;;;5053603;28;20472;-44
2021/03/25 11:23:07;;;;;;;68.47;39.37;;;13.90;95.40;;;;;;5052723;28;20436;-45
2021/03/25 11:25:35;;;;;;;60.33;41.47;;;13.90;95.10;;;;;;5053189;28;20456;-46
2021/03/25 11:28:04;;;;;;;53.43;38.37;;;13.90;95.10;;;;;;5053274;28;20442;-45
2021/03/25 11:30:36;;;;;;;62.10;39.67;;;14.10;94.90;;;;;;5053229;28;20827;-45
2021/03/25 11:33:21;;;;;;;54.40;38.87;;;14.20;94.40;;;;;;5052597;28;20880;-45
2021/03/25 11:35:48;;;;;;;57.50;38.63;;;14.00;93.30;;;;;;5053436;28;20460;-46
2021/03/25 11:38:20;;;;;;;51.33;33.87;;;14.00;93.30;;;;;;5053909;28;20448;-45
2021/03/25 11:40:48;;;;;;;53.33;37.83;;;14.00;93.50;;;;;;5054260;28;20872;-46
2021/03/25 11:43:17;;;;;;;53.77;38.43;;;14.20;93.50;;;;;;5051836;28;20452;-46
2021/03/25 11:45:45;;;;;;;47.07;35.43;;;14.70;93.50;;;;;;5051396;28;20486;-47
2021/03/25 11:48:17;;;;;;;46.50;33.23;;;14.20;92.60;;;;;;5050897;28;20484;-45
2021/03/25 11:50:46;;;;;;;50.20;31.70;;;14.20;92.30;;;;;;5051096;28;20520;-47
2021/03/25 11:53:35;;;;;;;53.60;34.10;;;14.60;92.50;;;;;;5050671;28;20448;-45
2021/03/25 11:56:01;;;;;;;52.30;35.60;;;14.40;91.90;;;;;;5051293;28;20440;-46
2021/03/25 11:58:28;;;;;;;59.70;38.17;;;14.80;91.80;;;;;;5032510;28;20804;-47
2021/03/25 12:01:04;;;;;;;47.10;34.40;;;14.80;91.60;;;;;;5051193;28;20433;-47
2021/03/25 12:03:36;;;;;;;54.47;30.60;;;14.90;91.50;;;;;;5039342;28;20470;-46
2021/03/25 12:06:15;;;;;;;48.67;35.33;;;15.00;90.70;;;;;;5044363;28;20508;-47
2021/03/25 12:08:43;;;;;;;51.87;36.47;;;15.00;90.70;;;;;;5030446;28;20468;-47
2021/03/25 12:11:11;;;;;;;56.67;36.97;;;15.10;90.50;;;;;;5035189;28;20532;-47
2021/03/25 12:13:39;;;;;;;55.83;35.37;;;15.60;90.10;;;;;;5030297;28;20512;-47
2021/03/25 12:16:08;;;;;;;46.10;32.77;;;15.20;89.10;;;;;;5038374;28;20945;-46
2021/03/25 12:18:37;;;;;;;50.07;35.73;;;15.30;88.50;;;;;;5050200;28;20458;-45
2021/03/25 12:21:07;;;;;;;57.23;35.83;;;15.60;88.40;;;;;;5053938;28;20418;-45
2021/03/25 12:23:35;;;;;;;50.03;34.63;;;15.30;88.10;;;;;;5053828;28;20541;-45
2021/03/25 12:26:05;;;;;;;49.03;34.67;;;15.40;88.00;;;;;;5053641;28;20449;-46
2021/03/25 12:28:34;;;;;;;49.27;34.13;;;15.60;87.70;;;;;;5053732;28;20469;-45
2021/03/25 12:31:00;;;;;;;45.37;33.77;;;15.70;87.80;;;;;;5054060;28;20430;-45
2021/03/25 12:33:28;;;;;;;48.53;34.67;;;15.80;87.00;;;;;;5053552;28;20435;-45
2021/03/25 12:35:56;;;;;;;51.20;35.47;;;15.80;84.60;;;;;;5053825;28;20434;-45
2021/03/25 12:38:24;;;;;;;52.43;32.90;;;15.50;84.60;;;;;;5053073;28;20463;-46
2021/03/25 12:40:51;;;;;;;47.57;34.50;;;15.60;84.10;;;;;;5053798;28;20436;-46
2021/03/25 12:43:20;;;;;;;52.70;36.37;;;15.80;84.10;;;;;;5053054;28;20514;-46
2021/03/25 12:45:50;;;;;;;60.83;37.67;;;15.70;84.50;;;;;;5035997;28;20529;-47
2021/03/25 12:48:17;;;;;;;59.83;36.87;;;15.90;85.20;;;;;;5053609;28;20436;-46
2021/03/25 12:50:44;;;;;;;57.40;36.17;;;15.70;84.50;;;;;;5053863;28;20952;-46
2021/03/25 12:53:10;;;;;;;49.17;34.60;;;15.60;83.50;;;;;;5053220;28;20435;-46
2021/03/25 12:55:37;;;;;;;50.20;35.37;;;15.50;83.50;;;;;;5053292;28;20515;-46
2021/03/25 12:58:04;;;;;;;46.80;32.60;;;16.00;83.90;;;;;;5053146;28;20614;-47
2021/03/25 13:00:35;;;;;;;45.17;32.00;;;15.90;83.70;;;;;;5053215;28;20458;-47
2021/03/25 13:03:01;;;;;;;48.90;34.80;;;16.10;82.60;;;;;;5053346;28;20477;-46
2021/03/25 13:05:28;;;;;;;55.80;33.43;;;16.00;81.00;;;;;;5053114;28;20493;-46
2021/03/25 13:07:55;;;;;;;44.00;32.43;;;16.00;81.70;;;;;;5053337;28;20428;-46
2021/03/25 13:10:26;;;;;;;56.07;35.83;;;16.00;81.40;;;;;;5053402;28;20983;-46